Time;durP1;ratioP1;P1;durP2;ratioP2;P2;SDS_P1;SDS_P2;PMS_P1;PMS_P2;Temp;Humidity;BMP_temperature;BMP_pressure;BME280_temperature;BME280_humidity;BME280_pressure;Samples;Min_cycle;Max_cycle;Signal;HPM_P1;HPM_P2
2024/01/26 00:01:36;;;;;;;39.13;21.42;;;8.50;99.90;;;;;;4831894;29;20216;-92
2024/01/26 00:04:01;;;;;;;33.63;20.55;;;8.40;99.90;;;;;;4845103;29;20064;-89
2024/01/26 00:06:27;;;;;;;38.38;19.50;;;8.40;99.90;;;;;;4845350;29;20105;-87
2024/01/26 00:08:53;;;;;;;36.35;20.15;;;8.40;99.90;;;;;;4816982;29;20470;-85
2024/01/26 00:11:19;;;;;;;40.95;21.75;;;8.40;99.90;;;;;;4815488;29;20133;-88
2024/01/26 00:13:45;;;;;;;38.65;20.13;;;8.50;99.90;;;;;;4827079;29;20051;-86
2024/01/26 00:16:11;;;;;;;42.83;19.83;;;8.50;99.90;;;;;;4847581;29;20162;-92
2024/01/26 00:18:38;;;;;;;34.08;17.85;;;8.50;99.90;;;;;;4832576;29;20042;-89
2024/01/26 00:21:04;;;;;;;36.55;21.20;;;8.50;99.90;;;;;;4824514;29;20045;-89
2024/01/26 00:23:30;;;;;;;32.53;20.73;;;8.50;99.90;;;;;;4827344;29;20042;-88
2024/01/26 00:25:57;;;;;;;38.15;20.63;;;8.50;99.90;;;;;;4825608;29;20109;-89
2024/01/26 00:28:23;;;;;;;36.95;19.30;;;8.60;99.90;;;;;;4846870;29;20066;-86
2024/01/26 00:30:48;;;;;;;24.50;17.63;;;8.60;99.90;;;;;;4847354;29;20064;-87
2024/01/26 00:33:14;;;;;;;33.05;19.30;;;8.60;99.90;;;;;;4841990;29;20137;-91
2024/01/26 00:35:40;;;;;;;30.83;18.95;;;8.70;99.90;;;;;;4856885;29;20132;-92
2024/01/26 00:38:05;;;;;;;32.55;18.75;;;8.60;99.90;;;;;;4843485;29;20107;-86
2024/01/26 00:40:31;;;;;;;30.10;17.23;;;8.70;99.90;;;;;;4814867;29;20373;-84
2024/01/26 00:42:57;;;;;;;26.50;17.50;;;8.70;99.90;;;;;;4845039;29;20115;-84
2024/01/26 00:45:23;;;;;;;26.13;16.20;;;8.60;99.90;;;;;;4829733;29;20050;-93
2024/01/26 00:47:48;;;;;;;26.20;18.33;;;8.70;99.90;;;;;;4844497;29;20046;-85
2024/01/26 00:50:14;;;;;;;31.33;18.83;;;8.60;99.90;;;;;;4848426;29;20053;-89
2024/01/26 00:52:40;;;;;;;27.48;18.42;;;8.70;99.90;;;;;;4833580;29;20054;-88
2024/01/26 00:55:06;;;;;;;34.80;19.05;;;8.70;99.90;;;;;;4845883;29;20053;-89
2024/01/26 00:57:32;;;;;;;30.00;16.65;;;8.70;99.90;;;;;;4844109;29;20050;-88
2024/01/26 00:59:59;;;;;;;30.67;17.77;;;8.80;99.90;;;;;;4863177;29;20542;-86
2024/01/26 01:02:25;;;;;;;28.67;17.45;;;8.70;99.90;;;;;;4816290;29;20058;-87
2024/01/26 01:04:51;;;;;;;29.10;16.75;;;8.70;99.90;;;;;;4848015;29;20046;-84
2024/01/26 01:07:17;;;;;;;33.85;18.83;;;8.80;99.90;;;;;;4831114;29;20050;-86
2024/01/26 01:09:42;;;;;;;30.10;16.77;;;8.70;99.90;;;;;;4820612;29;20399;-87
2024/01/26 01:12:08;;;;;;;29.33;17.65;;;8.70;99.90;;;;;;4848649;29;20049;-92
2024/01/26 01:14:36;;;;;;;28.52;16.15;;;8.70;99.90;;;;;;4823743;29;20055;-90
2024/01/26 01:17:08;;;;;;;31.70;17.65;;;8.80;99.90;;;;;;4845087;29;20046;-87
2024/01/26 01:19:34;;;;;;;31.67;18.30;;;8.90;99.90;;;;;;4845143;29;20038;-87
2024/01/26 01:22:00;;;;;;;25.77;16.92;;;8.90;99.90;;;;;;4846375;29;20530;-84
2024/01/26 01:24:25;;;;;;;27.63;16.33;;;8.90;99.90;;;;;;4826595;29;20132;-85
2024/01/26 01:26:51;;;;;;;28.70;16.90;;;8.90;99.90;;;;;;4818645;29;20050;-85
2024/01/26 01:29:17;;;;;;;31.08;17.30;;;8.90;99.90;;;;;;4846203;29;20090;-91
2024/01/26 01:31:42;;;;;;;27.27;17.05;;;9.00;99.90;;;;;;4814933;29;20054;-87
2024/01/26 01:34:08;;;;;;;26.67;17.13;;;9.00;99.90;;;;;;4848340;29;20042;-88
2024/01/26 01:36:34;;;;;;;21.65;15.07;;;9.00;99.90;;;;;;4823769;29;20038;-83
2024/01/26 01:38:59;;;;;;;26.73;16.83;;;8.90;99.90;;;;;;4829490;29;20074;-85
2024/01/26 01:41:25;;;;;;;24.17;15.80;;;9.00;99.90;;;;;;4845120;29;20059;-85
2024/01/26 01:43:55;;;;;;;31.42;17.10;;;9.00;99.90;;;;;;4814056;29;20092;-87
2024/01/26 01:46:21;;;;;;;27.70;15.80;;;9.00;99.90;;;;;;4847198;29;20080;-86
2024/01/26 01:48:48;;;;;;;27.95;15.93;;;9.00;99.90;;;;;;4834017;29;20507;-89
2024/01/26 01:51:15;;;;;;;29.08;16.25;;;9.00;99.90;;;;;;4822151;29;20109;-90
2024/01/26 01:53:42;;;;;;;28.45;17.23;;;9.00;99.90;;;;;;4821246;29;20046;-86
2024/01/26 01:56:11;;;;;;;31.77;18.15;;;9.00;99.90;;;;;;4825564;29;20109;-90
2024/01/26 01:58:40;;;;;;;30.38;18.85;;;9.10;99.90;;;;;;4817208;29;20063;-88
2024/01/26 02:01:05;;;;;;;26.10;17.05;;;9.00;99.90;;;;;;4865247;29;20105;-89
2024/01/26 02:03:31;;;;;;;30.27;18.45;;;9.00;99.90;;;;;;4818721;29;20053;-88
2024/01/26 02:05:57;;;;;;;29.45;18.42;;;9.00;99.90;;;;;;4850546;29;20072;-83
2024/01/26 02:08:23;;;;;;;27.67;17.00;;;9.10;99.90;;;;;;4826296;29;20096;-88
2024/01/26 02:10:49;;;;;;;28.48;18.35;;;9.10;99.90;;;;;;4843545;29;20510;-92
2024/01/26 02:13:15;;;;;;;24.85;15.63;;;9.10;99.90;;;;;;4848340;29;20038;-87
2024/01/26 02:15:41;;;;;;;24.58;15.88;;;9.10;99.90;;;;;;4822714;29;20054;-84
2024/01/26 02:18:07;;;;;;;24.63;15.48;;;9.10;99.90;;;;;;4816673;29;20079;-90
2024/01/26 02:20:33;;;;;;;24.42;17.67;;;9.20;99.90;;;;;;4845098;29;20046;-84
2024/01/26 02:22:58;;;;;;;22.92;15.02;;;9.10;99.90;;;;;;4817152;29;20073;-83
2024/01/26 02:25:24;;;;;;;24.80;16.70;;;9.20;99.90;;;;;;4832823;29;20500;-85
2024/01/26 02:27:53;;;;;;;24.83;15.25;;;9.20;99.90;;;;;;4846926;29;20050;-86
2024/01/26 02:30:19;;;;;;;26.08;16.05;;;9.10;99.90;;;;;;4850128;29;20052;-86
2024/01/26 02:32:45;;;;;;;25.63;16.42;;;9.20;99.90;;;;;;4844924;29;20050;-88
2024/01/26 02:35:10;;;;;;;24.45;15.77;;;9.20;99.90;;;;;;4826386;29;20050;-94
2024/01/26 02:37:36;;;;;;;25.02;17.35;;;9.20;99.90;;;;;;4851303;29;20506;-87
2024/01/26 02:40:02;;;;;;;25.50;16.98;;;9.20;99.90;;;;;;4831333;29;20046;-88
2024/01/26 02:42:28;;;;;;;23.75;17.17;;;9.20;99.90;;;;;;4824575;29;20038;-82
2024/01/26 02:44:54;;;;;;;20.70;15.00;;;9.30;99.90;;;;;;4865537;29;20057;-92
2024/01/26 02:47:19;;;;;;;22.83;15.45;;;9.30;99.90;;;;;;4837135;29;20046;-85
2024/01/26 02:49:45;;;;;;;25.42;17.75;;;9.20;99.90;;;;;;4849349;29;20057;-88
2024/01/26 02:52:11;;;;;;;28.83;17.77;;;9.30;99.90;;;;;;4847924;29;20080;-83
2024/01/26 02:54:36;;;;;;;18.80;15.90;;;9.30;99.90;;;;;;4838695;29;20046;-82
2024/01/26 02:57:02;;;;;;;24.38;16.23;;;9.30;99.90;;;;;;4846442;29;20054;-90
2024/01/26 02:59:28;;;;;;;21.92;16.13;;;9.30;99.90;;;;;;4823124;29;20050;-84
2024/01/26 03:01:54;;;;;;;23.92;16.40;;;9.30;99.90;;;;;;4840371;29;20050;-84
2024/01/26 03:04:20;;;;;;;21.13;16.13;;;9.40;99.90;;;;;;4846106;29;20041;-83
2024/01/26 03:06:46;;;;;;;26.52;17.33;;;9.30;99.90;;;;;;4823496;29;20126;-86
2024/01/26 03:09:12;;;;;;;20.92;15.65;;;9.40;99.90;;;;;;4819330;29;20038;-86
2024/01/26 03:11:39;;;;;;;23.67;16.45;;;9.40;99.90;;;;;;4824424;29;20096;-89
2024/01/26 03:14:06;;;;;;;23.50;15.50;;;9.40;99.90;;;;;;4819452;29;20100;-90
2024/01/26 03:16:33;;;;;;;21.73;15.63;;;9.40;99.90;;;;;;4832191;29;20039;-81
2024/01/26 03:18:59;;;;;;;20.58;14.88;;;9.40;99.90;;;;;;4849714;29;20122;-81
2024/01/26 03:21:24;;;;;;;22.13;15.88;;;9.40;99.90;;;;;;4822257;29;20042;-87
2024/01/26 03:23:50;;;;;;;22.40;17.90;;;9.40;99.90;;;;;;4831173;29;20057;-82
2024/01/26 03:26:15;;;;;;;23.95;15.27;;;9.40;99.90;;;;;;4848241;29;20065;-85
2024/01/26 03:28:41;;;;;;;21.90;14.40;;;9.50;99.90;;;;;;4846951;29;20110;-85
2024/01/26 03:31:07;;;;;;;23.88;17.05;;;9.40;99.90;;;;;;4848493;29;20054;-88
2024/01/26 03:33:32;;;;;;;20.60;16.02;;;9.40;99.90;;;;;;4840987;29;20049;-80
2024/01/26 03:35:58;;;;;;;32.85;18.13;;;9.30;99.90;;;;;;4841031;29;20132;-85
2024/01/26 03:38:24;;;;;;;21.05;16.60;;;9.40;99.90;;;;;;4819416;29;20046;-84
2024/01/26 03:40:49;;;;;;;23.30;19.13;;;9.40;99.90;;;;;;4829192;29;20052;-80
2024/01/26 03:43:15;;;;;;;22.00;16.60;;;9.40;99.90;;;;;;4849409;29;20045;-89
2024/01/26 03:45:41;;;;;;;21.75;15.85;;;9.40;99.90;;;;;;4836228;29;20114;-87
2024/01/26 03:48:07;;;;;;;22.25;15.60;;;9.40;99.90;;;;;;4848925;29;20046;-88
2024/01/26 03:50:33;;;;;;;19.45;14.77;;;9.40;99.90;;;;;;4823690;29;20054;-88
2024/01/26 03:52:59;;;;;;;23.10;17.45;;;9.40;99.90;;;;;;4845254;29;20079;-84
2024/01/26 03:55:25;;;;;;;23.17;17.30;;;9.40;99.90;;;;;;4847276;29;20053;-82
2024/01/26 03:57:51;;;;;;;26.20;19.30;;;9.50;99.90;;;;;;4848688;29;20042;-81
2024/01/26 04:00:17;;;;;;;19.25;16.60;;;9.50;99.90;;;;;;4823608;29;20473;-87
2024/01/26 04:02:43;;;;;;;21.85;19.65;;;9.50;99.90;;;;;;4864375;29;20491;-84
2024/01/26 04:05:09;;;;;;;21.17;17.52;;;9.50;99.90;;;;;;4826206;29;20089;-84
2024/01/26 04:07:35;;;;;;;21.67;18.02;;;9.50;99.90;;;;;;4831414;29;20550;-83
2024/01/26 04:10:01;;;;;;;22.77;20.30;;;9.50;99.90;;;;;;4847535;29;20046;-81
2024/01/26 04:12:27;;;;;;;23.52;19.75;;;9.50;99.90;;;;;;4823438;29;20133;-89
2024/01/26 04:14:52;;;;;;;26.35;23.65;;;9.50;99.90;;;;;;4848503;29;20191;-81
2024/01/26 04:17:18;;;;;;;20.98;17.83;;;9.60;99.90;;;;;;4840008;29;20064;-80
2024/01/26 04:19:44;;;;;;;24.63;18.10;;;9.50;99.90;;;;;;4833973;29;20102;-86
2024/01/26 04:22:09;;;;;;;31.35;28.45;;;9.50;99.90;;;;;;4844580;29;20046;-89
2024/01/26 04:24:35;;;;;;;23.58;20.77;;;9.50;99.90;;;;;;4846222;29;20062;-79
2024/01/26 04:27:01;;;;;;;28.30;22.42;;;9.50;99.90;;;;;;4848020;29;20071;-82
2024/01/26 04:29:27;;;;;;;21.20;17.83;;;9.30;99.90;;;;;;4830153;29;20134;-78
2024/01/26 04:31:53;;;;;;;22.00;19.67;;;9.50;99.90;;;;;;4814741;29;20050;-85
2024/01/26 04:34:19;;;;;;;23.75;18.25;;;9.50;99.90;;;;;;4847636;29;20053;-83
2024/01/26 04:36:48;;;;;;;24.25;19.35;;;9.50;99.90;;;;;;4848026;29;20050;-81
2024/01/26 04:39:15;;;;;;;19.27;16.98;;;9.50;99.90;;;;;;4820395;29;20053;-89
2024/01/26 04:41:41;;;;;;;20.23;15.73;;;9.50;99.90;;;;;;4815659;29;20054;-82
2024/01/26 04:44:08;;;;;;;25.33;23.05;;;9.50;99.90;;;;;;4847392;29;20088;-84
2024/01/26 04:46:34;;;;;;;26.40;23.55;;;9.50;99.90;;;;;;4840081;29;20836;-82
2024/01/26 04:49:00;;;;;;;23.52;20.45;;;9.60;99.90;;;;;;4824472;29;20039;-83
2024/01/26 04:51:26;;;;;;;21.88;19.05;;;9.60;99.90;;;;;;4829698;29;20119;-82
2024/01/26 04:53:52;;;;;;;27.33;24.85;;;9.60;99.90;;;;;;4832679;29;20053;-84
2024/01/26 04:56:19;;;;;;;20.55;18.42;;;9.60;99.90;;;;;;4825203;29;20050;-80
2024/01/26 04:58:45;;;;;;;25.73;23.10;;;9.60;99.90;;;;;;4848391;29;20058;-84
2024/01/26 05:01:11;;;;;;;28.65;20.08;;;9.70;99.90;;;;;;4842451;29;20060;-85
2024/01/26 05:03:36;;;;;;;30.90;28.08;;;9.70;99.90;;;;;;4815740;29;20110;-81
2024/01/26 05:06:02;;;;;;;21.88;18.13;;;9.70;99.90;;;;;;4844681;29;20046;-78
2024/01/26 05:08:28;;;;;;;24.52;19.25;;;9.70;99.90;;;;;;4829796;29;20054;-81
2024/01/26 05:10:54;;;;;;;21.05;17.30;;;9.80;99.90;;;;;;4847883;29;20058;-81
2024/01/26 05:13:19;;;;;;;20.25;17.98;;;9.70;99.90;;;;;;4834296;29;20078;-80
2024/01/26 05:15:45;;;;;;;24.08;19.30;;;9.80;99.90;;;;;;4844974;29;20137;-80
2024/01/26 05:18:11;;;;;;;23.55;21.23;;;9.80;99.90;;;;;;4836606;29;20088;-81
2024/01/26 05:20:36;;;;;;;22.10;19.85;;;9.90;99.90;;;;;;4824927;29;20046;-80
2024/01/26 05:23:02;;;;;;;23.25;18.50;;;9.80;99.90;;;;;;4832155;29;20143;-83
2024/01/26 05:25:28;;;;;;;24.08;20.00;;;9.90;99.90;;;;;;4815320;29;20200;-80
2024/01/26 05:27:54;;;;;;;20.65;17.38;;;9.80;99.90;;;;;;4844816;29;20050;-85
2024/01/26 05:30:19;;;;;;;22.35;19.92;;;9.90;99.90;;;;;;4847935;29;20087;-84
2024/01/26 05:32:45;;;;;;;22.52;20.05;;;9.90;99.90;;;;;;4822460;29;20057;-79
2024/01/26 05:35:11;;;;;;;22.85;17.75;;;9.90;99.90;;;;;;4866071;29;20768;-80
2024/01/26 05:37:36;;;;;;;20.33;18.30;;;9.90;99.90;;;;;;4840108;29;20090;-80
2024/01/26 05:40:07;;;;;;;19.33;17.40;;;9.90;99.90;;;;;;4841564;29;20035;-79
2024/01/26 05:42:32;;;;;;;23.98;21.45;;;9.90;99.90;;;;;;4840796;29;20114;-80
2024/01/26 05:44:58;;;;;;;20.60;16.33;;;10.00;99.90;;;;;;4834283;29;20042;-86
2024/01/26 05:47:23;;;;;;;20.40;18.23;;;10.00;99.90;;;;;;4831034;29;20061;-82
2024/01/26 05:49:50;;;;;;;19.25;17.23;;;10.00;99.90;;;;;;4850363;29;20050;-80
2024/01/26 05:52:16;;;;;;;19.52;14.05;;;10.00;99.90;;;;;;4849220;29;20050;-84
2024/01/26 05:54:42;;;;;;;19.67;17.58;;;10.00;99.90;;;;;;4818664;29;20050;-83
2024/01/26 05:57:08;;;;;;;19.15;17.45;;;10.00;99.90;;;;;;4832013;29;20054;-80
2024/01/26 05:59:37;;;;;;;20.10;16.83;;;10.00;99.90;;;;;;4866886;29;20053;-79
2024/01/26 06:02:03;;;;;;;21.58;19.30;;;10.10;99.90;;;;;;4834707;29;20062;-81
2024/01/26 06:04:31;;;;;;;17.88;13.95;;;10.10;99.90;;;;;;4817136;29;20042;-83
2024/01/26 06:06:57;;;;;;;19.40;13.38;;;10.10;99.90;;;;;;4851300;29;20049;-84
2024/01/26 06:09:23;;;;;;;15.65;14.02;;;10.10;99.90;;;;;;4824122;29;20061;-81
2024/01/26 06:11:48;;;;;;;17.75;14.40;;;10.10;99.90;;;;;;4835252;29;20443;-84
2024/01/26 06:14:14;;;;;;;18.40;16.73;;;10.10;99.90;;;;;;4841775;29;20086;-85
2024/01/26 06:16:40;;;;;;;16.65;14.90;;;10.10;99.90;;;;;;4863812;29;20046;-85
2024/01/26 06:19:05;;;;;;;16.52;15.10;;;10.10;99.90;;;;;;4850579;29;20123;-80
2024/01/26 06:21:31;;;;;;;14.02;12.52;;;10.20;99.90;;;;;;4833273;29;20497;-80
2024/01/26 06:23:57;;;;;;;19.58;17.73;;;10.20;99.90;;;;;;4850937;29;20045;-82
2024/01/26 06:26:25;;;;;;;20.02;17.98;;;10.20;99.90;;;;;;4834986;29;20698;-81
2024/01/26 06:28:51;;;;;;;23.40;21.40;;;10.20;99.90;;;;;;4851400;29;20476;-82
2024/01/26 06:31:17;;;;;;;18.23;16.30;;;10.20;99.90;;;;;;4816933;29;20050;-81
2024/01/26 06:33:42;;;;;;;16.38;14.98;;;10.20;99.90;;;;;;4835835;29;20046;-88
2024/01/26 06:36:11;;;;;;;18.23;16.48;;;10.10;99.90;;;;;;4822838;29;20039;-81
2024/01/26 06:38:40;;;;;;;16.10;14.57;;;10.10;99.90;;;;;;4832188;29;20063;-86
2024/01/26 06:41:07;;;;;;;18.20;16.48;;;10.10;99.90;;;;;;4832379;29;20103;-86
2024/01/26 06:43:33;;;;;;;30.50;28.45;;;10.00;99.90;;;;;;4831276;29;20137;-87
2024/01/26 06:45:58;;;;;;;17.85;16.13;;;10.10;99.90;;;;;;4847952;29;20124;-85
2024/01/26 06:48:26;;;;;;;20.13;18.27;;;10.00;99.90;;;;;;4845726;29;20053;-86
2024/01/26 06:50:52;;;;;;;21.00;19.05;;;10.00;99.90;;;;;;4844317;29;20053;-86
2024/01/26 06:53:18;;;;;;;24.88;23.20;;;10.00;99.90;;;;;;4839067;29;20057;-81
2024/01/26 06:55:45;;;;;;;20.30;18.75;;;10.10;99.90;;;;;;4850101;29;20054;-83
2024/01/26 06:58:11;;;;;;;20.70;19.20;;;10.10;99.90;;;;;;4838028;29;20154;-83
2024/01/26 07:00:36;;;;;;;26.52;25.00;;;10.10;99.90;;;;;;4845448;29;20136;-83
2024/01/26 07:03:02;;;;;;;16.55;15.48;;;10.10;99.90;;;;;;4832755;29;20090;-81
2024/01/26 07:05:28;;;;;;;19.70;18.23;;;10.00;99.90;;;;;;4864646;29;20076;-82
2024/01/26 07:07:57;;;;;;;23.27;21.33;;;10.00;99.90;;;;;;4832942;29;20051;-84
2024/01/26 07:10:26;;;;;;;22.73;21.15;;;10.00;99.90;;;;;;4816222;29;20051;-84
2024/01/26 07:12:51;;;;;;;22.35;20.95;;;10.00;99.90;;;;;;4822351;29;20049;-85
2024/01/26 07:15:17;;;;;;;20.20;18.80;;;10.00;99.90;;;;;;4843342;29;20054;-86
2024/01/26 07:17:42;;;;;;;25.67;23.98;;;10.00;99.90;;;;;;4834125;29;20046;-83
2024/01/26 07:20:09;;;;;;;23.40;21.65;;;10.00;99.90;;;;;;4823541;29;20038;-80
2024/01/26 07:22:34;;;;;;;20.17;18.58;;;10.00;99.90;;;;;;4829506;29;20079;-82
2024/01/26 07:25:00;;;;;;;22.58;20.98;;;10.00;99.90;;;;;;4843699;29;20058;-81
2024/01/26 07:27:27;;;;;;;22.55;21.05;;;10.00;99.90;;;;;;4815792;29;20053;-82
2024/01/26 07:29:52;;;;;;;47.92;40.50;;;10.00;99.90;;;;;;4816165;29;20088;-83
2024/01/26 07:32:18;;;;;;;104.68;100.07;;;10.00;99.90;;;;;;4830889;29;20129;-82
2024/01/26 07:34:44;;;;;;;22.85;21.25;;;10.00;99.90;;;;;;4849461;29;20054;-81
2024/01/26 07:37:10;;;;;;;21.98;20.48;;;10.00;99.90;;;;;;4849914;29;20447;-80
2024/01/26 07:39:35;;;;;;;23.20;21.60;;;10.00;99.90;;;;;;4820891;29;20112;-82
2024/01/26 07:42:01;;;;;;;19.30;18.10;;;10.00;99.90;;;;;;4850311;29;20094;-85
2024/01/26 07:44:27;;;;;;;123.35;37.30;;;9.90;99.90;;;;;;4818504;29;20067;-80
2024/01/26 07:46:53;;;;;;;20.77;19.63;;;10.00;99.90;;;;;;4816361;29;20129;-80
2024/01/26 07:49:19;;;;;;;22.25;20.85;;;9.90;99.90;;;;;;4849150;29;20042;-82
2024/01/26 07:51:44;;;;;;;21.15;19.65;;;10.00;99.90;;;;;;4826254;29;20042;-82
2024/01/26 07:54:10;;;;;;;26.95;25.58;;;10.00;99.90;;;;;;4849240;29;20048;-81
2024/01/26 07:56:36;;;;;;;22.52;20.92;;;10.00;99.90;;;;;;4821286;29;20046;-81
2024/01/26 07:59:01;;;;;;;24.30;22.80;;;10.00;99.90;;;;;;4846828;29;20137;-81
2024/01/26 08:01:27;;;;;;;27.70;26.05;;;10.00;99.90;;;;;;4829366;29;20046;-78
2024/01/26 08:03:53;;;;;;;20.30;18.92;;;10.00;99.90;;;;;;4846530;29;20155;-81
2024/01/26 08:06:19;;;;;;;22.23;20.80;;;10.00;99.90;;;;;;4845544;29;20046;-78
2024/01/26 08:08:44;;;;;;;23.00;21.60;;;10.00;99.90;;;;;;4827099;29;20049;-82
2024/01/26 08:11:10;;;;;;;23.17;21.85;;;10.00;99.90;;;;;;4848269;29;20084;-83
2024/01/26 08:13:36;;;;;;;24.35;22.77;;;10.10;99.90;;;;;;4845783;29;20395;-79
2024/01/26 08:16:01;;;;;;;26.05;24.45;;;10.00;99.90;;;;;;4846277;29;20054;-84
2024/01/26 08:18:27;;;;;;;22.67;21.25;;;10.10;99.90;;;;;;4847827;29;20116;-84
2024/01/26 08:20:53;;;;;;;23.15;21.77;;;10.10;99.90;;;;;;4821599;29;20042;-84
2024/01/26 08:23:19;;;;;;;24.38;22.98;;;10.10;99.90;;;;;;4835272;29;20056;-83
2024/01/26 08:25:45;;;;;;;27.10;25.70;;;10.10;99.90;;;;;;4824081;29;20680;-83
2024/01/26 08:28:10;;;;;;;29.88;28.25;;;10.10;99.90;;;;;;4826040;29;20125;-82
2024/01/26 08:30:36;;;;;;;33.65;31.95;;;10.10;99.90;;;;;;4818837;29;20082;-83
2024/01/26 08:33:02;;;;;;;33.10;31.30;;;10.10;99.90;;;;;;4844615;29;20153;-83
2024/01/26 08:35:27;;;;;;;25.85;24.65;;;10.20;99.90;;;;;;4831754;29;20514;-80
2024/01/26 08:37:53;;;;;;;27.38;25.98;;;10.20;99.90;;;;;;4831114;29;20062;-81
2024/01/26 08:40:20;;;;;;;45.10;42.83;;;10.20;99.90;;;;;;4832563;29;20495;-82
2024/01/26 08:42:46;;;;;;;27.85;26.35;;;10.20;99.90;;;;;;4847178;29;20101;-81
2024/01/26 08:45:12;;;;;;;35.63;33.88;;;10.20;99.90;;;;;;4832124;29;20046;-81
2024/01/26 08:47:38;;;;;;;23.50;22.40;;;10.20;99.90;;;;;;4847164;29;20062;-80
2024/01/26 08:50:05;;;;;;;21.67;20.48;;;10.20;99.90;;;;;;4832474;29;20109;-81
2024/01/26 08:52:31;;;;;;;19.67;18.45;;;10.30;99.90;;;;;;4831496;29;20106;-83
2024/01/26 08:54:58;;;;;;;32.15;30.58;;;10.30;99.90;;;;;;4833393;29;20060;-82
2024/01/26 08:57:23;;;;;;;43.63;41.58;;;10.40;99.90;;;;;;4846078;29;20099;-81
2024/01/26 08:59:49;;;;;;;20.77;19.77;;;10.40;99.90;;;;;;4846572;29;20066;-81
2024/01/26 09:02:15;;;;;;;23.45;22.20;;;10.40;99.90;;;;;;4835230;29;20062;-81
2024/01/26 09:04:41;;;;;;;22.85;21.75;;;10.40;99.90;;;;;;4832387;29;20106;-86
2024/01/26 09:07:06;;;;;;;25.08;23.88;;;10.40;99.90;;;;;;4833463;29;20101;-82
2024/01/26 09:09:32;;;;;;;23.42;22.30;;;10.40;99.90;;;;;;4835859;29;20132;-85
2024/01/26 09:11:58;;;;;;;28.90;27.20;;;10.40;99.90;;;;;;4835667;29;20054;-80
2024/01/26 09:14:24;;;;;;;26.40;25.17;;;10.40;99.90;;;;;;4834663;29;20451;-81
2024/01/26 09:16:51;;;;;;;26.73;25.33;;;10.40;99.90;;;;;;4835379;29;20083;-84
2024/01/26 09:19:17;;;;;;;25.23;24.02;;;10.50;99.90;;;;;;4851102;29;20052;-84
2024/01/26 09:21:43;;;;;;;25.08;23.77;;;10.40;99.90;;;;;;4834909;29;20050;-83
2024/01/26 09:24:09;;;;;;;28.58;27.17;;;10.40;99.90;;;;;;4834982;29;20106;-83
2024/01/26 09:26:35;;;;;;;27.00;25.58;;;10.50;99.90;;;;;;4834351;29;20510;-83
2024/01/26 09:29:01;;;;;;;26.27;24.77;;;10.50;99.90;;;;;;4836129;29;20050;-82
2024/01/26 09:31:26;;;;;;;23.45;22.05;;;10.50;99.90;;;;;;4834285;29;20052;-83
2024/01/26 09:33:52;;;;;;;21.33;20.13;;;10.60;99.90;;;;;;4836028;29;20537;-82
2024/01/26 09:36:18;;;;;;;24.42;23.13;;;10.60;99.90;;;;;;4834075;29;20053;-85
2024/01/26 09:38:45;;;;;;;22.65;21.20;;;10.60;99.90;;;;;;4849305;29;20042;-82
2024/01/26 09:41:11;;;;;;;22.08;20.70;;;10.60;99.90;;;;;;4835194;29;20053;-81
2024/01/26 09:43:36;;;;;;;24.02;22.38;;;10.60;99.90;;;;;;4834629;29;20050;-84
2024/01/26 09:46:04;;;;;;;23.88;22.65;;;10.60;99.90;;;;;;4851452;29;20053;-82
2024/01/26 09:48:32;;;;;;;13.35;12.75;;;10.50;99.90;;;;;;4833774;29;20385;-80
2024/01/26 09:50:58;;;;;;;12.07;11.52;;;10.10;99.90;;;;;;4834917;29;20137;-78
2024/01/26 09:53:26;;;;;;;10.77;10.38;;;9.20;99.90;;;;;;4834854;29;20049;-80
2024/01/26 09:55:52;;;;;;;112.95;89.53;;;8.90;99.90;;;;;;4837874;29;20109;-80
2024/01/26 09:58:18;;;;;;;18.33;17.40;;;8.60;99.90;;;;;;4834786;29;20080;-77
2024/01/26 10:00:45;;;;;;;19.42;18.70;;;8.50;99.90;;;;;;4848319;29;20062;-80
2024/01/26 10:03:12;;;;;;;21.40;20.60;;;8.50;99.90;;;;;;4851421;29;20448;-81
2024/01/26 10:05:38;;;;;;;22.13;21.33;;;8.40;99.90;;;;;;4849383;29;20050;-80
2024/01/26 10:08:08;;;;;;;23.48;22.63;;;8.40;99.90;;;;;;4834923;29;20050;-79
2024/01/26 10:10:34;;;;;;;24.83;23.77;;;8.40;99.90;;;;;;4849756;29;20065;-82
2024/01/26 10:12:59;;;;;;;26.85;25.85;;;8.40;99.90;;;;;;4833020;29;20050;-78
2024/01/26 10:15:25;;;;;;;25.15;24.02;;;8.30;99.90;;;;;;4844835;29;20044;-82
2024/01/26 10:17:54;;;;;;;23.98;23.15;;;8.20;99.90;;;;;;4847108;29;20593;-82
2024/01/26 10:20:20;;;;;;;25.42;24.25;;;8.10;99.90;;;;;;4834786;29;20042;-78
2024/01/26 10:22:46;;;;;;;22.75;21.75;;;8.00;99.90;;;;;;4832533;29;20109;-80
2024/01/26 10:25:13;;;;;;;25.27;24.27;;;8.00;99.90;;;;;;4848698;29;20077;-79
2024/01/26 10:27:39;;;;;;;25.30;24.25;;;7.90;99.90;;;;;;4848693;29;20075;-78
2024/01/26 10:30:06;;;;;;;21.98;21.17;;;7.90;99.90;;;;;;4832709;29;20415;-78
2024/01/26 10:32:32;;;;;;;26.55;25.52;;;7.90;99.90;;;;;;4847946;29;20042;-76
2024/01/26 10:34:58;;;;;;;24.17;22.95;;;7.90;99.90;;;;;;4832323;29;20444;-82
2024/01/26 10:37:29;;;;;;;27.65;26.45;;;7.90;99.90;;;;;;4833493;29;20046;-77
2024/01/26 10:39:56;;;;;;;26.35;25.25;;;7.80;99.90;;;;;;4828627;29;20494;-79
2024/01/26 10:42:23;;;;;;;24.55;23.65;;;7.80;99.90;;;;;;4834650;29;20078;-78
2024/01/26 10:44:49;;;;;;;26.45;25.32;;;7.80;99.90;;;;;;3995021;29;10001446;-80
2024/01/26 10:47:16;;;;;;;21.27;20.23;;;7.70;99.90;;;;;;3131024;29;10001292;-77
2024/01/26 10:49:43;;;;;;;23.00;21.80;;;7.70;99.90;;;;;;3980912;29;10000622;-78
2024/01/26 10:52:11;;;;;;;21.92;20.42;;;7.70;99.90;;;;;;4833916;29;20113;-79
2024/01/26 10:54:37;;;;;;;21.27;20.38;;;7.70;99.90;;;;;;4850509;29;20045;-78
2024/01/26 10:57:04;;;;;;;21.00;19.98;;;7.70;99.90;;;;;;4848701;29;20078;-81
2024/01/26 10:59:31;;;;;;;22.48;21.20;;;7.80;99.90;;;;;;4834150;29;20050;-80
2024/01/26 11:01:57;;;;;;;19.00;18.25;;;7.80;99.90;;;;;;4847411;29;20079;-82
2024/01/26 11:04:23;;;;;;;17.17;16.40;;;7.90;99.90;;;;;;4832427;29;20522;-81
2024/01/26 11:06:48;;;;;;;16.42;15.68;;;7.90;99.90;;;;;;4849271;29;20050;-80
2024/01/26 11:09:17;;;;;;;14.63;13.90;;;7.90;99.90;;;;;;4848469;29;20109;-82
2024/01/26 11:11:49;;;;;;;15.43;14.55;;;7.90;99.90;;;;;;4849912;29;20049;-78
2024/01/26 11:14:15;;;;;;;15.82;14.95;;;7.90;99.90;;;;;;4832201;29;20045;-81
2024/01/26 11:16:43;;;;;;;16.02;14.98;;;7.90;99.90;;;;;;4849616;29;20062;-81
2024/01/26 11:19:20;;;;;;;7.70;7.13;;;7.90;99.90;;;;;;4833496;29;20050;-80
2024/01/26 11:21:47;;;;;;;8.75;8.15;;;7.90;99.90;;;;;;4849407;29;20116;-81
2024/01/26 11:24:17;;;;;;;7.55;7.05;;;7.90;99.90;;;;;;4833844;29;20049;-79
2024/01/26 11:26:58;;;;;;;8.02;7.35;;;7.90;99.90;;;;;;4831954;29;20049;-80
2024/01/26 11:29:31;;;;;;;8.65;8.15;;;7.90;99.90;;;;;;4840497;29;20511;-79
2024/01/26 11:31:57;;;;;;;9.25;8.45;;;7.90;99.90;;;;;;4833008;29;20057;-80
2024/01/26 11:34:23;;;;;;;7.65;6.75;;;7.90;99.90;;;;;;4833141;29;20410;-84
2024/01/26 11:37:14;;;;;;;12.50;11.38;;;7.90;99.90;;;;;;4832913;29;20050;-80
2024/01/26 11:39:41;;;;;;;8.43;7.72;;;7.90;99.90;;;;;;4845713;29;20048;-81
2024/01/26 11:42:11;;;;;;;8.10;7.50;;;7.90;99.90;;;;;;4832973;29;20038;-80
2024/01/26 11:44:42;;;;;;;9.43;8.52;;;7.90;99.90;;;;;;4832603;29;20054;-82
2024/01/26 11:47:11;;;;;;;9.45;7.22;;;7.90;99.90;;;;;;4846355;29;20054;-81
2024/01/26 11:49:38;;;;;;;8.60;7.90;;;7.90;99.90;;;;;;4844947;29;20056;-79
2024/01/26 11:52:05;;;;;;;6.75;6.18;;;7.90;99.90;;;;;;4831681;29;20114;-83
2024/01/26 11:54:34;;;;;;;7.50;6.55;;;8.00;99.90;;;;;;4848702;29;20098;-81
2024/01/26 11:57:02;;;;;;;6.35;5.63;;;8.00;99.90;;;;;;4831872;29;20038;-79
2024/01/26 11:59:31;;;;;;;6.30;5.65;;;8.10;99.90;;;;;;4848094;29;20937;-78
2024/01/26 12:01:56;;;;;;;5.50;5.00;;;8.10;99.90;;;;;;4846211;29;20085;-80
2024/01/26 12:04:23;;;;;;;7.68;7.15;;;8.00;99.90;;;;;;4832416;29;20306;-80
2024/01/26 12:06:50;;;;;;;14.65;13.57;;;8.00;99.90;;;;;;4837445;29;20049;-79
2024/01/26 12:09:16;;;;;;;10.52;9.77;;;8.00;99.90;;;;;;4848731;29;20544;-80
2024/01/26 12:11:42;;;;;;;9.88;4.95;;;8.00;99.90;;;;;;4861513;29;20046;-81
2024/01/26 12:14:08;;;;;;;6.80;5.60;;;8.00;99.90;;;;;;4830629;29;20045;-80
2024/01/26 12:16:33;;;;;;;5.50;5.00;;;7.90;99.90;;;;;;4832749;29;20049;-79
2024/01/26 12:19:01;;;;;;;7.43;6.78;;;7.90;99.90;;;;;;4845772;29;20061;-80
2024/01/26 12:21:28;;;;;;;12.23;5.97;;;7.80;99.90;;;;;;4831453;29;20041;-79
2024/01/26 12:23:54;;;;;;;7.97;7.18;;;7.80;99.90;;;;;;4831629;29;20058;-81
2024/01/26 12:26:20;;;;;;;7.68;6.40;;;7.70;99.90;;;;;;4845277;29;20042;-82
2024/01/26 12:28:46;;;;;;;6.97;6.32;;;7.70;99.90;;;;;;4832991;29;20138;-81
2024/01/26 12:31:12;;;;;;;9.27;8.40;;;7.70;99.90;;;;;;4831312;29;20057;-83